Bargersville, Indiana
Current Conditions -  °F | °C
As of 1:54 PM on Friday 24 Oct 2014 (Local Time) from KIND Reporting Station
Broken Clouds Broken Clouds  
Wind Chill: 58°   Ceiling: 2000
Heat Index: 58°   Visibility: 10mi
Dew Point: 49°   Wind: 3mph
Humidity: 72%   Direction: NA
Pressure: 30.07"   Gusts: NA
Location:  39.52°N, 86.17°W
Report Text: KIND 241754Z VRB03KT 10SM BKN020 BKN080 14/09 A3007 RMK AO2 SLP182 T01440094 10150 20044 58012
Loading
Personal Weather Stations






























Interactive Weather Map
Tropical Storm Tracking
New forecast layout! Learn more

10-Day Weather Forecast

Advertisements
Track Severe Weather on mobile